Time;durP1;ratioP1;P1;durP2;ratioP2;P2;SDS_P1;SDS_P2;PMS_P1;PMS_P2;Temp;Humidity;BMP_temperature;BMP_pressure;BME280_temperature;BME280_humidity;BME280_pressure;Samples;Min_cycle;Max_cycle;Signal;HPM_P1;HPM_P2
2021/08/01 00:01:58;;;;;;;4.28;2.42;;;;;;;15.99;100.00;95319.00;5052040;28;20464;-75
2021/08/01 00:04:23;;;;;;;4.90;2.70;;;;;;;15.89;100.00;95323.41;5052205;28;20865;-75
2021/08/01 00:06:48;;;;;;;4.30;2.60;;;;;;;16.00;100.00;95318.03;5051785;28;20417;-74
2021/08/01 00:09:16;;;;;;;5.15;2.85;;;;;;;16.10;100.00;95316.25;5052086;28;20819;-75
2021/08/01 00:11:41;;;;;;;6.82;2.60;;;;;;;16.18;100.00;95313.75;5052248;28;20453;-75
2021/08/01 00:14:08;;;;;;;6.77;2.73;;;;;;;16.22;100.00;95309.06;5051951;28;20444;-75
2021/08/01 00:16:33;;;;;;;8.25;3.00;;;;;;;16.22;100.00;95316.91;5051665;28;20413;-75
2021/08/01 00:18:59;;;;;;;4.47;2.95;;;;;;;16.13;100.00;95315.13;5051518;28;20415;-75
2021/08/01 00:21:25;;;;;;;7.20;3.00;;;;;;;15.97;100.00;95300.84;5051606;28;20413;-75
2021/08/01 00:23:50;;;;;;;5.57;2.85;;;;;;;15.89;100.00;95303.34;5050628;28;20429;-75
2021/08/01 00:26:16;;;;;;;6.20;2.80;;;;;;;16.04;100.00;95301.13;5038893;28;20471;-75
2021/08/01 00:28:41;;;;;;;4.50;3.03;;;;;;;16.11;100.00;95296.16;5051971;28;20823;-75
2021/08/01 00:31:08;;;;;;;6.50;2.80;;;;;;;16.15;100.00;95293.13;5051360;28;21053;-75
2021/08/01 00:33:33;;;;;;;5.07;2.97;;;;;;;16.18;100.00;95292.84;5051692;28;20424;-75
2021/08/01 00:35:59;;;;;;;3.50;2.50;;;;;;;16.16;100.00;95286.91;5052539;28;20429;-75
2021/08/01 00:38:24;;;;;;;5.37;2.90;;;;;;;16.21;100.00;95286.50;5058337;28;20409;-75
2021/08/01 00:40:49;;;;;;;5.07;2.97;;;;;;;16.23;100.00;95284.56;5055805;28;21435;-74
2021/08/01 00:43:15;;;;;;;3.97;2.60;;;;;;;16.23;100.00;95278.53;5055174;28;20455;-75
2021/08/01 00:45:41;;;;;;;6.20;3.13;;;;;;;16.21;100.00;95276.88;5051311;28;20496;-75
2021/08/01 00:48:11;;;;;;;4.63;2.80;;;;;;;16.19;100.00;95276.19;5051374;28;20834;-75
2021/08/01 00:50:37;;;;;;;4.78;2.78;;;;;;;16.16;100.00;95278.25;5051283;28;20405;-75
2021/08/01 00:53:05;;;;;;;11.57;2.92;;;;;;;15.98;100.00;95267.72;5051408;28;20471;-75
2021/08/01 00:55:30;;;;;;;4.87;3.03;;;;;;;15.92;100.00;95270.91;5050884;28;20501;-75
2021/08/01 00:57:56;;;;;;;4.70;2.83;;;;;;;16.03;100.00;95265.53;5051067;28;20405;-75
2021/08/01 01:03:15;;;;;;;4.03;2.83;;;;;;;16.01;100.00;95272.66;5050915;28;20486;-75
2021/08/01 01:05:47;;;;;;;3.67;2.40;;;;;;;16.02;100.00;95279.56;5050792;28;20512;-75
2021/08/01 01:08:20;;;;;;;4.88;2.65;;;;;;;16.08;100.00;95281.59;5050918;28;20432;-75
2021/08/01 01:10:48;;;;;;;5.53;2.90;;;;;;;16.02;100.00;95283.94;5050757;28;20409;-75
2021/08/01 01:13:18;;;;;;;14.07;3.38;;;;;;;15.95;100.00;95281.09;5051164;28;20585;-75
2021/08/01 01:15:46;;;;;;;7.45;3.30;;;;;;;15.93;100.00;95273.38;5050577;28;20515;-75
2021/08/01 01:18:17;;;;;;;5.32;3.00;;;;;;;15.69;100.00;95273.84;5050540;28;20512;-75
2021/08/01 01:21:05;;;;;;;5.60;2.63;;;;;;;15.78;100.00;95274.78;5050825;28;20424;-75
2021/08/01 01:23:39;;;;;;;3.25;2.67;;;;;;;15.65;100.00;95284.69;5049482;28;20908;-75
2021/08/01 01:26:09;;;;;;;4.45;2.83;;;;;;;15.67;100.00;95280.97;5050532;28;20482;-75
2021/08/01 01:28:39;;;;;;;10.68;3.30;;;;;;;15.41;100.00;95282.47;5050592;28;20443;-76
2021/08/01 01:31:13;;;;;;;8.38;3.28;;;;;;;15.48;100.00;95284.41;5049979;28;20413;-75
2021/08/01 01:33:47;;;;;;;6.50;2.75;;;;;;;15.40;100.00;95276.44;5049382;28;20417;-75
2021/08/01 01:36:19;;;;;;;5.93;3.17;;;;;;;15.51;100.00;95274.66;5049220;28;20461;-75
2021/08/01 01:38:45;;;;;;;5.65;2.78;;;;;;;15.53;100.00;95280.53;5050875;28;20419;-75
2021/08/01 01:41:11;;;;;;;6.88;2.78;;;;;;;15.59;100.00;95274.78;5050709;28;20428;-75
2021/08/01 01:43:37;;;;;;;5.32;3.10;;;;;;;15.48;100.00;95279.19;5050809;28;20413;-75
2021/08/01 01:46:03;;;;;;;4.97;2.90;;;;;;;15.56;100.00;95270.66;5050434;28;20895;-75
2021/08/01 01:48:29;;;;;;;4.00;2.50;;;;;;;15.58;100.00;95273.97;5050685;28;20474;-75
2021/08/01 01:50:55;;;;;;;4.47;2.92;;;;;;;15.57;100.00;95277.50;5050546;28;20937;-75
2021/08/01 01:53:22;;;;;;;6.47;2.57;;;;;;;15.62;100.00;95279.72;5050528;28;20451;-75
2021/08/01 01:55:48;;;;;;;4.40;2.75;;;;;;;15.64;100.00;95275.19;5050255;28;20417;-75
2021/08/01 01:58:14;;;;;;;5.95;2.90;;;;;;;15.37;100.00;95268.06;5049292;28;20516;-75
2021/08/01 02:00:39;;;;;;;4.55;2.78;;;;;;;15.54;100.00;95272.59;5050605;28;20437;-75
2021/08/01 02:03:05;;;;;;;4.43;2.90;;;;;;;15.49;100.00;95267.78;5050400;28;20418;-75
2021/08/01 02:05:30;;;;;;;3.95;2.80;;;;;;;15.34;100.00;95260.50;5050163;28;20480;-75
2021/08/01 02:07:56;;;;;;;5.33;2.90;;;;;;;15.30;100.00;95262.56;5050321;28;20461;-76
2021/08/01 02:10:29;;;;;;;4.23;2.87;;;;;;;15.30;100.00;95264.34;5050365;28;20421;-75
2021/08/01 02:12:56;;;;;;;6.72;2.70;;;;;;;15.29;100.00;95257.50;5072302;23;20418;-76
2021/08/01 02:15:25;;;;;;;5.15;2.83;;;;;;;15.15;100.00;95251.72;5050101;28;20401;-75
2021/08/01 02:17:54;;;;;;;7.00;3.05;;;;;;;15.23;100.00;95257.06;5050335;28;20504;-76
2021/08/01 02:20:25;;;;;;;4.90;2.50;;;;;;;15.30;100.00;95249.53;5032548;28;20449;-76
2021/08/01 02:22:53;;;;;;;5.13;3.03;;;;;;;15.15;100.00;95248.28;5037108;28;20427;-75
2021/08/01 02:25:19;;;;;;;7.57;2.78;;;;;;;15.10;100.00;95251.31;5012420;28;20462;-75
2021/08/01 02:27:48;;;;;;;4.80;2.58;;;;;;;15.17;100.00;95257.63;5030269;28;20496;-75
2021/08/01 02:30:15;;;;;;;6.00;2.80;;;;;;;15.16;100.00;95255.97;5012702;28;20525;-76
2021/08/01 02:32:41;;;;;;;4.90;2.70;;;;;;;15.28;100.00;95259.28;5030292;28;20415;-76
2021/08/01 02:35:08;;;;;;;5.82;3.00;;;;;;;15.29;100.00;95253.09;5012454;28;20469;-76
2021/08/01 02:37:35;;;;;;;5.13;3.08;;;;;;;15.29;100.00;95254.88;5012493;28;20411;-77
2021/08/01 02:40:01;;;;;;;4.77;2.80;;;;;;;15.36;100.00;95254.19;5030263;28;20484;-76
2021/08/01 02:42:28;;;;;;;3.67;2.35;;;;;;;15.38;100.00;95251.44;5030505;28;20415;-76
2021/08/01 02:44:59;;;;;;;7.53;2.88;;;;;;;15.46;100.00;95248.94;5033873;28;20418;-76
2021/08/01 02:47:28;;;;;;;3.92;2.63;;;;;;;15.50;100.00;95250.34;5033665;28;20430;-77
2021/08/01 02:49:55;;;;;;;5.88;2.75;;;;;;;15.53;100.00;95244.84;5033881;28;20768;-76
2021/08/01 02:52:29;;;;;;;4.20;3.17;;;;;;;15.55;100.00;95249.94;5033692;28;20411;-76
2021/08/01 02:54:57;;;;;;;6.22;2.70;;;;;;;15.34;100.00;95244.84;5015878;28;20448;-76
2021/08/01 02:57:26;;;;;;;7.90;2.80;;;;;;;15.31;100.00;95242.50;5033426;28;20491;-76
2021/08/01 02:59:52;;;;;;;4.85;3.10;;;;;;;15.28;100.00;95250.63;5033618;28;20435;-75
2021/08/01 03:02:19;;;;;;;5.28;3.03;;;;;;;15.36;100.00;95259.41;5033518;28;20780;-75
2021/08/01 03:04:46;;;;;;;5.97;2.95;;;;;;;15.22;100.00;95246.78;5033510;28;20923;-76
2021/08/01 03:07:12;;;;;;;5.13;2.72;;;;;;;15.23;100.00;95251.84;5032930;28;21062;-76
2021/08/01 03:09:37;;;;;;;5.13;2.93;;;;;;;15.30;100.00;95253.91;5015827;28;20841;-76
2021/08/01 03:12:07;;;;;;;5.90;3.20;;;;;;;15.13;100.00;95252.81;5015527;28;20425;-76
2021/08/01 03:14:33;;;;;;;3.97;2.60;;;;;;;15.25;100.00;95252.56;5033452;28;20429;-76
2021/08/01 03:16:58;;;;;;;5.78;2.95;;;;;;;15.07;100.00;95254.19;5015472;28;20423;-75
2021/08/01 03:19:25;;;;;;;4.60;3.00;;;;;;;15.09;100.00;95251.44;5033216;28;20454;-75
2021/08/01 03:21:50;;;;;;;4.78;3.03;;;;;;;14.95;100.00;95255.28;5033262;28;20426;-76
2021/08/01 03:24:16;;;;;;;4.30;2.80;;;;;;;15.11;100.00;95257.34;5015704;28;20419;-77
2021/08/01 03:26:41;;;;;;;4.57;2.72;;;;;;;15.15;100.00;95256.94;5032836;28;20784;-76
2021/08/01 03:29:07;;;;;;;5.07;2.83;;;;;;;15.08;100.00;95253.22;5033139;28;20422;-76
2021/08/01 03:31:32;;;;;;;4.13;2.73;;;;;;;15.10;100.00;95260.94;5033006;28;20407;-76
2021/08/01 03:33:57;;;;;;;4.25;2.70;;;;;;;15.18;100.00;95261.88;5033057;28;20414;-76
2021/08/01 03:36:24;;;;;;;3.80;2.70;;;;;;;15.17;100.00;95257.63;5032832;28;20472;-76
2021/08/01 03:38:50;;;;;;;4.43;2.90;;;;;;;15.19;100.00;95265.31;5032945;28;20411;-76
2021/08/01 03:41:15;;;;;;;8.03;2.73;;;;;;;15.28;100.00;95267.13;5032770;28;20473;-76
2021/08/01 03:43:40;;;;;;;5.70;2.77;;;;;;;15.20;100.00;95266.94;5015040;28;20425;-76
2021/08/01 03:46:06;;;;;;;3.92;2.88;;;;;;;15.11;100.00;95267.78;5032519;28;20419;-76
2021/08/01 03:48:33;;;;;;;4.33;2.73;;;;;;;14.98;100.00;95270.63;5032779;28;20831;-76
2021/08/01 03:50:58;;;;;;;3.25;2.72;;;;;;;15.16;100.00;95278.63;5032587;28;20834;-76
2021/08/01 03:53:25;;;;;;;7.45;3.22;;;;;;;15.04;100.00;95272.72;5032494;28;20498;-76
2021/08/01 03:55:51;;;;;;;4.50;2.65;;;;;;;15.17;100.00;95275.06;5031264;28;20507;-76
2021/08/01 03:58:16;;;;;;;8.93;3.13;;;;;;;15.17;100.00;95273.28;5014801;28;20497;-77
2021/08/01 04:00:45;;;;;;;3.87;2.70;;;;;;;15.24;100.00;95277.00;5014869;28;20419;-76
2021/08/01 04:03:11;;;;;;;6.95;2.85;;;;;;;15.18;100.00;95274.94;5032385;28;20411;-76
2021/08/01 04:05:37;;;;;;;5.83;2.90;;;;;;;15.26;100.00;95282.06;5032169;28;20411;-75
2021/08/01 04:08:03;;;;;;;4.40;2.70;;;;;;;15.05;100.00;95284.78;5014519;28;20518;-75
2021/08/01 04:10:30;;;;;;;3.73;2.53;;;;;;;15.03;100.00;95281.50;5032285;28;20509;-75
2021/08/01 04:12:56;;;;;;;4.03;2.47;;;;;;;15.04;100.00;95282.31;5014377;28;20418;-75
2021/08/01 04:15:21;;;;;;;6.20;2.60;;;;;;;15.13;100.00;95284.09;5032072;28;20914;-75
2021/08/01 04:17:46;;;;;;;6.83;3.10;;;;;;;14.88;100.00;95281.06;5014674;28;20419;-76
2021/08/01 04:20:12;;;;;;;4.97;2.63;;;;;;;14.84;100.00;95282.31;5032165;28;20457;-76
2021/08/01 04:22:37;;;;;;;5.15;3.13;;;;;;;14.94;100.00;95283.16;5014362;28;20415;-76
2021/08/01 04:25:04;;;;;;;4.72;3.00;;;;;;;15.04;100.00;95287.53;5032103;28;20904;-76
2021/08/01 04:27:30;;;;;;;7.15;3.17;;;;;;;14.93;100.00;95280.66;5031792;28;20423;-76
2021/08/01 04:29:56;;;;;;;4.97;3.03;;;;;;;14.90;100.00;95280.91;5031953;28;20777;-75
2021/08/01 04:32:21;;;;;;;6.10;2.90;;;;;;;14.85;100.00;95280.50;5014105;28;20423;-75
2021/08/01 04:34:47;;;;;;;5.25;2.90;;;;;;;14.95;100.00;95290.00;5031848;28;20465;-75
2021/08/01 04:37:12;;;;;;;10.30;3.07;;;;;;;14.81;100.00;95279.94;5031656;28;20498;-75
2021/08/01 04:39:37;;;;;;;5.70;3.00;;;;;;;14.82;100.00;95281.59;5031708;28;20418;-75
2021/08/01 04:42:03;;;;;;;5.65;2.95;;;;;;;14.96;100.00;95278.59;5013867;28;20781;-75
2021/08/01 04:44:29;;;;;;;4.60;2.90;;;;;;;14.96;100.00;95285.59;5031916;28;20419;-76
2021/08/01 04:46:55;;;;;;;5.70;2.50;;;;;;;14.94;100.00;95269.25;5031360;28;20976;-75
2021/08/01 04:49:20;;;;;;;6.87;3.23;;;;;;;14.88;100.00;95275.03;5014022;28;20522;-75
2021/08/01 04:51:46;;;;;;;4.67;2.83;;;;;;;15.02;100.00;95274.66;5013780;28;20421;-76
2021/08/01 04:54:11;;;;;;;5.28;2.58;;;;;;;15.04;100.00;95270.09;5013769;28;20423;-76
2021/08/01 04:56:36;;;;;;;6.20;3.00;;;;;;;15.10;100.00;95266.97;5031247;28;20406;-76
2021/08/01 04:59:02;;;;;;;4.07;2.83;;;;;;;14.96;100.00;95273.38;5031427;28;20490;-76
2021/08/01 05:01:28;;;;;;;5.25;2.83;;;;;;;14.88;100.00;95280.25;5013633;28;20948;-76
2021/08/01 05:03:54;;;;;;;5.60;3.08;;;;;;;14.93;100.00;95276.25;5013803;28;20428;-76
2021/08/01 05:06:19;;;;;;;10.90;3.30;;;;;;;14.95;100.00;95276.97;5030781;28;20418;-76
2021/08/01 05:08:45;;;;;;;5.27;2.67;;;;;;;15.03;100.00;95275.47;5031225;28;20451;-77
2021/08/01 05:11:10;;;;;;;4.82;2.85;;;;;;;15.04;100.00;95274.50;5031144;28;20494;-76
2021/08/01 05:13:36;;;;;;;6.67;2.90;;;;;;;15.05;100.00;95269.13;5031175;28;20562;-76
2021/08/01 05:16:01;;;;;;;4.53;2.90;;;;;;;15.05;100.00;95270.91;5031017;28;20771;-76
2021/08/01 05:18:28;;;;;;;3.47;2.53;;;;;;;15.04;100.00;95270.09;5031036;28;20415;-75
2021/08/01 05:20:54;;;;;;;4.17;2.77;;;;;;;14.99;100.00;95264.47;5031056;28;20442;-76
2021/08/01 05:23:19;;;;;;;4.93;2.80;;;;;;;14.86;100.00;95263.91;5031010;28;20450;-76
2021/08/01 05:25:44;;;;;;;4.93;2.83;;;;;;;14.91;100.00;95267.78;5013034;28;20507;-76
2021/08/01 05:28:10;;;;;;;5.80;3.00;;;;;;;15.02;100.00;95266.81;5030861;28;20524;-76
2021/08/01 05:30:35;;;;;;;7.60;3.10;;;;;;;15.03;100.00;95272.84;5030742;28;20411;-76
2021/08/01 05:33:04;;;;;;;6.37;2.40;;;;;;;15.13;100.00;95268.44;5030760;28;20411;-76
2021/08/01 05:35:30;;;;;;;3.97;2.42;;;;;;;15.06;100.00;95272.59;5030552;28;20966;-76
2021/08/01 05:37:56;;;;;;;4.03;2.40;;;;;;;15.10;100.00;95274.78;5030839;28;20415;-76
2021/08/01 05:40:21;;;;;;;4.88;2.53;;;;;;;14.98;100.00;95273.25;5030744;28;20505;-76
2021/08/01 05:42:47;;;;;;;9.17;2.63;;;;;;;14.96;100.00;95278.59;5013168;28;20419;-75
2021/08/01 05:45:12;;;;;;;6.23;2.47;;;;;;;14.98;100.00;95274.09;5012835;28;20922;-76
2021/08/01 05:47:38;;;;;;;4.05;2.58;;;;;;;15.04;100.00;95270.09;5013136;28;20474;-77
2021/08/01 05:50:04;;;;;;;3.22;2.38;;;;;;;15.09;100.00;95272.28;5030753;28;20498;-76
2021/08/01 05:52:31;;;;;;;4.68;2.63;;;;;;;15.03;100.00;95272.84;5013017;28;20430;-76
2021/08/01 05:54:57;;;;;;;4.40;2.70;;;;;;;15.11;100.00;95270.38;5030578;28;20419;-76
2021/08/01 05:57:22;;;;;;;5.32;2.40;;;;;;;15.14;100.00;95275.34;5030491;28;20465;-76
2021/08/01 05:59:47;;;;;;;3.60;2.43;;;;;;;15.10;100.00;95269.56;5030745;28;20912;-76
2021/08/01 06:02:13;;;;;;;5.40;2.60;;;;;;;15.13;100.00;95269.31;5012814;28;20419;-76
2021/08/01 06:04:39;;;;;;;3.90;2.35;;;;;;;15.18;100.00;95271.50;5012960;28;20430;-76
2021/08/01 06:07:06;;;;;;;3.92;2.40;;;;;;;15.24;100.00;95277.00;5012689;28;20481;-76
2021/08/01 06:09:33;;;;;;;3.85;2.55;;;;;;;15.34;100.00;95276.97;5030511;28;20426;-75
2021/08/01 06:11:58;;;;;;;4.55;2.70;;;;;;;15.40;100.00;95273.00;5012837;28;20517;-75
2021/08/01 06:14:23;;;;;;;4.90;2.40;;;;;;;15.44;100.00;95282.22;5030575;28;20502;-75
2021/08/01 06:16:49;;;;;;;6.18;2.63;;;;;;;15.48;100.00;95279.19;5030325;28;20433;-75
2021/08/01 06:19:15;;;;;;;5.15;2.40;;;;;;;15.40;100.00;95278.22;5015944;28;20414;-76
2021/08/01 06:21:40;;;;;;;3.67;2.60;;;;;;;15.49;100.00;95282.59;5016700;28;20422;-76
2021/08/01 06:24:06;;;;;;;4.90;2.80;;;;;;;15.40;100.00;95286.06;5016539;28;20489;-76
2021/08/01 06:26:33;;;;;;;4.22;2.08;;;;;;;15.42;100.00;95292.75;5034004;28;20414;-75
2021/08/01 06:28:58;;;;;;;4.50;2.75;;;;;;;15.55;100.00;95292.50;5034250;28;20417;-75
2021/08/01 06:31:24;;;;;;;3.83;2.50;;;;;;;15.48;100.00;95291.41;5033934;28;20411;-75
2021/08/01 06:33:49;;;;;;;4.72;2.60;;;;;;;15.58;100.00;95292.22;5034088;28;20498;-75
2021/08/01 06:36:15;;;;;;;3.30;2.50;;;;;;;15.65;100.00;95290.75;5033721;28;20438;-75
2021/08/01 06:38:43;;;;;;;4.25;2.60;;;;;;;15.44;100.00;95290.03;5016164;28;20419;-75
2021/08/01 06:41:08;;;;;;;4.70;2.65;;;;;;;15.56;100.00;95288.94;5033894;28;20908;-75
2021/08/01 06:43:35;;;;;;;4.97;2.60;;;;;;;15.65;100.00;95297.72;5016222;28;20423;-75
2021/08/01 06:46:01;;;;;;;3.97;2.65;;;;;;;15.67;100.00;95303.66;5033564;28;20514;-75
2021/08/01 06:48:27;;;;;;;4.55;2.83;;;;;;;15.68;100.00;95297.47;5016137;28;20871;-75
2021/08/01 06:50:52;;;;;;;6.72;2.60;;;;;;;15.65;100.00;95306.41;5033914;28;20421;-75
2021/08/01 06:53:18;;;;;;;5.22;2.92;;;;;;;15.50;100.00;95307.78;5015021;28;20470;-75
2021/08/01 06:55:44;;;;;;;3.00;2.60;;;;;;;15.50;100.00;95307.78;5033311;28;20415;-75
2021/08/01 06:58:11;;;;;;;6.97;2.40;;;;;;;15.48;100.00;95307.06;5033466;28;20465;-75
2021/08/01 07:00:37;;;;;;;4.18;2.60;;;;;;;15.49;100.00;95306.09;5033466;28;20425;-75
2021/08/01 07:03:03;;;;;;;4.03;2.63;;;;;;;15.47;100.00;95308.84;5033381;28;20411;-75
2021/08/01 07:05:30;;;;;;;6.13;2.92;;;;;;;15.44;100.00;95308.31;5015018;28;20796;-75
2021/08/01 07:07:56;;;;;;;3.50;2.45;;;;;;;15.58;100.00;95312.28;5022030;28;20433;-75
2021/08/01 07:10:22;;;;;;;3.20;2.50;;;;;;;15.63;100.00;95304.88;5034137;28;20430;-75
2021/08/01 07:12:48;;;;;;;3.35;2.42;;;;;;;15.47;100.00;95321.09;5036694;28;20458;-75
2021/08/01 07:15:15;;;;;;;5.60;2.95;;;;;;;15.39;100.00;95313.94;5032769;28;20456;-75
2021/08/01 07:17:42;;;;;;;3.85;2.58;;;;;;;15.43;100.00;95314.50;5033444;28;20414;-75
2021/08/01 07:20:10;;;;;;;2.78;2.30;;;;;;;15.45;100.00;95315.16;5033151;28;20429;-76
2021/08/01 07:22:36;;;;;;;5.18;2.88;;;;;;;15.27;100.00;95322.03;5035838;28;20412;-75
2021/08/01 07:25:02;;;;;;;4.20;2.75;;;;;;;15.38;100.00;95329.72;5039506;28;20407;-75
2021/08/01 07:27:27;;;;;;;4.75;2.53;;;;;;;15.40;100.00;95330.41;5032667;28;20986;-75
2021/08/01 07:29:52;;;;;;;4.07;2.00;;;;;;;15.29;100.00;95326.16;5029128;28;20495;-75
2021/08/01 07:32:18;;;;;;;2.75;2.10;;;;;;;15.04;100.00;95324.88;5011624;28;20991;-75
2021/08/01 07:34:45;;;;;;;4.30;2.10;;;;;;;15.27;100.00;95332.47;5026155;28;20985;-77
2021/08/01 07:37:10;;;;;;;3.30;2.10;;;;;;;15.41;100.00;95334.66;5015908;28;20782;-75
2021/08/01 07:39:36;;;;;;;4.83;2.27;;;;;;;15.42;100.00;95341.53;5040181;28;20421;-75
2021/08/01 07:42:02;;;;;;;3.80;2.33;;;;;;;15.43;100.00;95341.41;5039012;28;20415;-75
2021/08/01 07:44:29;;;;;;;3.30;2.03;;;;;;;15.51;100.00;95345.94;5032203;28;20850;-74
2021/08/01 07:46:55;;;;;;;3.53;2.53;;;;;;;15.53;100.00;95344.00;5032182;28;20446;-74
2021/08/01 07:49:22;;;;;;;3.53;2.57;;;;;;;15.65;100.00;95347.34;5032472;28;20903;-75
2021/08/01 07:51:49;;;;;;;4.38;2.42;;;;;;;16.01;100.00;95351.03;5032378;28;20426;-75
2021/08/01 07:54:14;;;;;;;2.60;2.40;;;;;;;16.05;100.00;95349.78;5032352;28;20415;-74
2021/08/01 07:56:40;;;;;;;6.43;2.40;;;;;;;15.87;100.00;95343.63;5030736;28;20485;-75
2021/08/01 07:59:05;;;;;;;6.37;2.57;;;;;;;15.99;100.00;95346.94;5033415;28;20446;-75
2021/08/01 08:01:31;;;;;;;4.90;2.75;;;;;;;15.97;100.00;95342.66;5040331;28;20517;-74
2021/08/01 08:03:56;;;;;;;3.63;2.65;;;;;;;15.86;100.00;95339.38;5032714;28;20916;-74
2021/08/01 08:06:22;;;;;;;8.20;2.60;;;;;;;15.67;100.00;95341.03;5014205;28;20422;-74
2021/08/01 08:08:48;;;;;;;5.67;2.80;;;;;;;15.67;100.00;95343.63;5014125;28;20522;-75
2021/08/01 08:11:14;;;;;;;4.40;2.38;;;;;;;15.57;100.00;95340.16;5032201;28;20423;-75
2021/08/01 08:13:39;;;;;;;4.60;2.70;;;;;;;15.62;100.00;95340.59;5032334;28;20441;-76
2021/08/01 08:16:05;;;;;;;4.80;2.58;;;;;;;15.60;100.00;95341.69;5022039;28;20421;-76
2021/08/01 08:18:30;;;;;;;4.18;2.40;;;;;;;15.59;100.00;95340.84;5034013;28;20914;-76
2021/08/01 08:20:56;;;;;;;4.03;2.60;;;;;;;15.56;100.00;95343.75;5051702;28;20448;-76
2021/08/01 08:23:23;;;;;;;3.10;2.40;;;;;;;15.61;100.00;95346.78;5051686;28;20744;-76
2021/08/01 08:25:50;;;;;;;3.63;2.72;;;;;;;15.67;100.00;95348.84;5033824;28;20426;-76
2021/08/01 08:28:15;;;;;;;5.65;2.67;;;;;;;15.84;100.00;95347.34;5031569;28;20742;-76
2021/08/01 08:30:41;;;;;;;3.42;2.70;;;;;;;15.91;100.00;95350.22;5031326;28;20765;-76
2021/08/01 08:33:07;;;;;;;19.52;2.70;;;;;;;15.92;100.00;95351.88;5031596;28;20415;-76
2021/08/01 08:35:33;;;;;;;3.47;2.50;;;;;;;15.94;100.00;95347.31;5031365;28;20411;-76
2021/08/01 08:37:58;;;;;;;4.93;2.87;;;;;;;15.86;100.00;95345.41;5013882;28;20411;-76
2021/08/01 08:40:23;;;;;;;5.30;2.95;;;;;;;15.86;100.00;95347.19;5030811;28;20784;-76
2021/08/01 08:42:51;;;;;;;4.97;3.10;;;;;;;15.92;100.00;95354.47;5031310;28;20420;-76
2021/08/01 08:45:17;;;;;;;5.72;3.15;;;;;;;16.02;100.00;95354.47;5030919;28;20427;-76
2021/08/01 08:47:43;;;;;;;3.87;2.83;;;;;;;16.08;100.00;95354.72;5031442;28;20915;-77
2021/08/01 08:50:11;;;;;;;6.68;3.05;;;;;;;16.17;100.00;95364.34;5013800;28;20419;-76
2021/08/01 08:52:37;;;;;;;4.75;3.25;;;;;;;16.17;100.00;95364.34;5031445;28;20466;-76
2021/08/01 08:55:05;;;;;;;6.73;2.30;;;;;;;16.31;100.00;95359.63;5013002;28;20792;-76
2021/08/01 08:57:36;;;;;;;4.68;2.80;;;;;;;16.45;100.00;95362.63;5013562;28;20415;-76
2021/08/01 09:00:05;;;;;;;4.50;2.88;;;;;;;16.46;100.00;95363.44;5013393;28;20419;-76
2021/08/01 09:02:31;;;;;;;7.53;3.53;;;;;;;16.27;100.00;95363.50;5011386;28;20523;-76
2021/08/01 09:05:00;;;;;;;5.90;3.33;;;;;;;16.49;100.00;95373.63;4993534;28;20998;-76
2021/08/01 09:07:25;;;;;;;5.95;3.20;;;;;;;16.54;100.00;95374.03;5011015;28;20471;-76
2021/08/01 09:09:51;;;;;;;6.90;3.30;;;;;;;16.55;100.00;95373.06;5027510;28;20845;-76
2021/08/01 09:12:16;;;;;;;6.72;3.03;;;;;;;16.59;100.00;95371.81;5030979;28;20411;-76
2021/08/01 09:14:42;;;;;;;6.50;3.13;;;;;;;16.57;100.00;95378.13;5030995;28;20441;-75
2021/08/01 09:17:09;;;;;;;5.15;3.28;;;;;;;16.50;100.00;95375.28;5030570;28;20407;-76
2021/08/01 09:19:36;;;;;;;3.30;2.63;;;;;;;16.56;100.00;95374.69;5030427;28;20490;-76
2021/08/01 09:22:14;;;;;;;7.45;3.33;;;;;;;16.66;100.00;95365.03;5038430;28;20429;-76
2021/08/01 09:24:40;;;;;;;4.13;3.17;;;;;;;16.76;100.00;95372.88;5030376;28;20419;-76
2021/08/01 09:27:06;;;;;;;4.30;3.20;;;;;;;16.83;100.00;95378.34;5030297;28;20423;-76
2021/08/01 09:29:32;;;;;;;5.43;3.07;;;;;;;16.91;100.00;95381.09;5035777;28;20544;-76
2021/08/01 09:31:58;;;;;;;4.55;3.20;;;;;;;16.89;100.00;95385.63;5050345;28;20429;-76
2021/08/01 09:34:26;;;;;;;4.53;2.70;;;;;;;16.95;100.00;95389.47;5050526;28;20504;-76
2021/08/01 09:36:59;;;;;;;4.45;3.30;;;;;;;17.00;100.00;95387.22;5050059;28;20489;-76
2021/08/01 09:39:26;;;;;;;21.00;3.35;;;;;;;16.78;100.00;95386.63;5046758;28;20419;-76
2021/08/01 09:42:00;;;;;;;6.25;3.28;;;;;;;16.67;100.00;95390.22;5013910;28;20801;-76
2021/08/01 09:44:25;;;;;;;5.15;3.00;;;;;;;16.67;100.00;95392.81;5030482;28;20462;-74
2021/08/01 09:46:55;;;;;;;5.13;3.25;;;;;;;16.68;100.00;95388.41;5012378;28;20876;-75
2021/08/01 09:49:22;;;;;;;4.78;3.50;;;;;;;16.67;100.00;95394.63;5030019;28;20422;-74
2021/08/01 09:51:50;;;;;;;5.28;3.30;;;;;;;16.85;100.00;95385.09;5008612;28;20457;-74
2021/08/01 09:54:17;;;;;;;5.22;3.40;;;;;;;16.88;100.00;95379.56;5013677;28;20420;-74
2021/08/01 09:56:52;;;;;;;4.82;3.08;;;;;;;17.08;100.00;95379.47;5030401;28;20421;-75
2021/08/01 09:59:19;;;;;;;6.05;3.13;;;;;;;16.86;100.00;95385.91;5037933;28;20432;-74
2021/08/01 10:01:48;;;;;;;6.57;3.53;;;;;;;16.83;100.00;95379.16;5051731;28;20465;-75
2021/08/01 10:04:21;;;;;;;5.07;3.22;;;;;;;16.87;100.00;95380.56;5054730;28;20851;-75
2021/08/01 10:06:59;;;;;;;7.50;3.42;;;;;;;16.93;100.00;95381.75;5036149;28;20421;-75
2021/08/01 10:09:26;;;;;;;7.22;3.85;;;;;;;16.97;100.00;95379.66;5051617;28;20477;-75
2021/08/01 10:11:53;;;;;;;4.32;2.95;;;;;;;17.04;100.00;95370.28;5019848;28;20426;-76
2021/08/01 10:14:19;;;;;;;9.98;3.67;;;;;;;17.20;100.00;95374.84;5034187;28;20430;-76
2021/08/01 10:16:44;;;;;;;5.97;3.50;;;;;;;17.15;100.00;95370.06;5033864;28;20910;-76
2021/08/01 10:19:09;;;;;;;3.70;2.73;;;;;;;17.23;99.33;95377.19;5034076;28;20411;-76
2021/08/01 10:21:35;;;;;;;4.85;3.30;;;;;;;17.44;100.00;95372.53;5034231;28;20469;-76
2021/08/01 10:24:05;;;;;;;5.72;3.15;;;;;;;17.65;100.00;95380.91;5016186;28;20454;-77
2021/08/01 10:26:34;;;;;;;6.80;3.70;;;;;;;17.64;100.00;95373.19;5016291;28;20419;-77
2021/08/01 10:29:03;;;;;;;6.30;3.50;;;;;;;17.64;98.45;95378.44;5016453;28;20423;-76
2021/08/01 10:31:33;;;;;;;4.50;2.90;;;;;;;17.56;91.53;95373.94;5033580;28;20419;-76
2021/08/01 10:34:07;;;;;;;7.07;2.70;;;;;;;17.81;91.91;95374.22;5033353;28;20512;-76
2021/08/01 10:36:33;;;;;;;6.60;2.80;;;;;;;17.89;88.65;95369.84;5033687;28;20912;-75
2021/08/01 10:39:04;;;;;;;4.28;2.72;;;;;;;17.71;88.89;95369.00;5033136;28;20407;-76
2021/08/01 10:41:32;;;;;;;5.00;2.92;;;;;;;17.76;88.84;95364.19;5015340;28;20423;-77
2021/08/01 10:44:03;;;;;;;6.13;2.58;;;;;;;17.57;85.49;95365.09;5034136;28;20725;-76
2021/08/01 10:46:29;;;;;;;4.93;2.60;;;;;;;17.61;87.15;95371.72;5015865;28;20427;-76
2021/08/01 10:48:57;;;;;;;5.50;2.60;;;;;;;17.62;84.71;95368.13;5034033;28;20448;-76
2021/08/01 10:51:26;;;;;;;4.68;2.45;;;;;;;17.62;81.79;95364.69;5033701;28;20939;-74
2021/08/01 10:53:51;;;;;;;4.00;2.45;;;;;;;17.53;83.41;95370.78;5033516;28;20425;-74
2021/08/01 10:56:31;;;;;;;5.40;2.57;;;;;;;17.72;81.28;95368.03;5033441;28;20431;-74
2021/08/01 10:58:56;;;;;;;4.05;2.40;;;;;;;17.62;81.88;95359.44;5015824;28;20427;-74
2021/08/01 11:01:21;;;;;;;6.03;2.60;;;;;;;17.81;81.68;95366.34;5033396;28;20996;-74
2021/08/01 11:04:22;;;;;;;8.07;2.33;;;;;;;17.60;78.50;95366.63;5033089;28;20407;-74
2021/08/01 11:06:47;;;;;;;3.97;2.17;;;;;;;17.62;82.06;95365.50;5014712;28;20555;-74
2021/08/01 11:09:13;;;;;;;3.57;2.23;;;;;;;17.49;82.69;95358.97;5033482;28;20454;-74
2021/08/01 11:11:44;;;;;;;4.07;2.17;;;;;;;17.60;80.82;95358.75;5033124;28;20545;-74
2021/08/01 11:14:45;;;;;;;7.40;2.53;;;;;;;17.75;85.58;95361.66;5033388;28;20415;-74
2021/08/01 11:17:10;;;;;;;4.10;2.08;;;;;;;17.60;79.75;95356.97;5032880;28;20849;-74
2021/08/01 11:19:36;;;;;;;3.70;2.23;;;;;;;17.87;79.92;95353.47;5015550;28;20484;-74
2021/08/01 11:22:03;;;;;;;2.97;2.03;;;;;;;17.96;78.66;95345.69;5033119;28;20534;-74
2021/08/01 11:24:28;;;;;;;5.97;2.03;;;;;;;17.87;75.83;95355.25;5033076;28;20761;-74
2021/08/01 11:27:11;;;;;;;3.83;2.10;;;;;;;17.89;74.23;95355.94;5014975;28;20431;-74
2021/08/01 11:29:56;;;;;;;5.13;2.03;;;;;;;18.00;77.54;95354.88;5033037;28;20784;-74